Time;durP1;ratioP1;P1;durP2;ratioP2;P2;SDS_P1;SDS_P2;PMS_P1;PMS_P2;Temp;Humidity;BMP_temperature;BMP_pressure;BME280_temperature;BME280_humidity;BME280_pressure;Samples;Min_cycle;Max_cycle;Signal;HPM_P1;HPM_P2
2022/03/08 00:01:33;;;;;;;7.70;3.10;;;4.40;99.90;;;;;;6282512;22;20027;-92
2022/03/08 00:04:00;;;;;;;7.57;3.33;;;4.50;99.90;;;;;;6281632;22;20085;-92
2022/03/08 00:06:28;;;;;;;4.55;2.05;;;4.50;99.90;;;;;;6281002;22;20023;-91
2022/03/08 00:08:55;;;;;;;6.60;3.10;;;4.50;99.90;;;;;;6281593;22;20016;-92
2022/03/08 00:11:25;;;;;;;6.88;2.67;;;4.40;99.90;;;;;;6256420;22;20019;-91
2022/03/08 00:13:53;;;;;;;10.50;4.63;;;4.50;99.90;;;;;;6256858;22;20026;-93
2022/03/08 00:16:20;;;;;;;9.50;3.65;;;4.40;99.90;;;;;;6256406;22;20024;-92
2022/03/08 00:18:49;;;;;;;8.80;2.90;;;4.50;99.90;;;;;;6256233;22;20045;-93
2022/03/08 00:21:17;;;;;;;10.27;4.43;;;4.50;99.90;;;;;;6281566;22;20058;-92
2022/03/08 00:23:45;;;;;;;11.93;5.55;;;4.40;99.90;;;;;;6281248;22;20047;-91
2022/03/08 00:26:16;;;;;;;5.97;3.05;;;4.10;99.90;;;;;;6281109;22;20015;-91
2022/03/08 00:28:44;;;;;;;6.05;2.97;;;4.20;99.90;;;;;;6281776;22;20015;-91
2022/03/08 00:31:11;;;;;;;8.98;3.65;;;4.20;99.90;;;;;;6281402;22;20023;-92
2022/03/08 00:33:41;;;;;;;14.30;5.05;;;4.40;99.90;;;;;;6282384;22;20022;-91
2022/03/08 00:36:09;;;;;;;7.00;3.30;;;4.30;99.90;;;;;;6308468;22;20022;-91
2022/03/08 00:38:36;;;;;;;14.25;6.00;;;4.20;99.90;;;;;;6281429;22;20090;-92
2022/03/08 00:41:03;;;;;;;10.15;3.45;;;4.10;99.90;;;;;;6281745;22;20023;-91
2022/03/08 00:43:30;;;;;;;11.90;4.72;;;4.20;99.90;;;;;;6281342;22;20350;-92
2022/03/08 00:46:00;;;;;;;9.20;4.10;;;4.20;99.90;;;;;;6282211;22;20019;-92
2022/03/08 00:48:28;;;;;;;8.25;4.43;;;4.30;99.90;;;;;;6281172;22;20022;-92
2022/03/08 00:50:55;;;;;;;6.20;3.75;;;4.30;99.90;;;;;;6281707;22;20030;-91
2022/03/08 00:53:23;;;;;;;10.05;4.72;;;4.20;99.90;;;;;;6282106;22;20081;-92
2022/03/08 00:55:50;;;;;;;9.50;3.92;;;4.10;99.90;;;;;;6281598;22;20011;-91
2022/03/08 00:58:21;;;;;;;13.18;5.78;;;4.10;99.90;;;;;;6255937;22;20027;-91
2022/03/08 01:00:48;;;;;;;11.43;5.75;;;4.00;99.90;;;;;;6281917;22;20076;-90
2022/03/08 01:03:16;;;;;;;5.32;2.70;;;4.10;99.90;;;;;;6281367;22;20030;-91
2022/03/08 01:05:47;;;;;;;7.20;3.38;;;4.20;99.90;;;;;;6309467;22;20464;-91
2022/03/08 01:08:14;;;;;;;8.40;3.10;;;4.20;99.90;;;;;;6283879;22;20029;-91
2022/03/08 01:10:41;;;;;;;6.88;3.33;;;4.20;99.90;;;;;;6259285;22;20039;-91
2022/03/08 01:13:09;;;;;;;7.00;3.80;;;4.20;99.90;;;;;;6281987;22;20342;-92
2022/03/08 01:15:36;;;;;;;8.30;3.22;;;4.20;99.90;;;;;;6281669;22;20338;-91
2022/03/08 01:18:03;;;;;;;7.72;3.58;;;4.20;99.90;;;;;;6281638;22;20098;-91
2022/03/08 01:20:30;;;;;;;10.48;4.68;;;4.30;99.90;;;;;;6282771;22;20113;-90
2022/03/08 01:22:57;;;;;;;8.80;4.55;;;4.10;99.90;;;;;;6309751;22;20019;-90
2022/03/08 01:25:25;;;;;;;9.65;4.15;;;4.10;99.90;;;;;;6283169;22;20494;-91
2022/03/08 01:27:54;;;;;;;13.20;5.75;;;4.00;99.90;;;;;;6283496;22;20022;-91
2022/03/08 01:30:23;;;;;;;10.60;4.68;;;4.00;99.90;;;;;;6282476;22;20007;-90
2022/03/08 01:32:50;;;;;;;11.15;4.63;;;4.00;99.90;;;;;;6282579;22;20042;-90
2022/03/08 01:35:18;;;;;;;8.90;4.43;;;4.00;99.90;;;;;;6282780;22;20019;-90
2022/03/08 01:37:46;;;;;;;7.25;3.75;;;3.70;99.90;;;;;;6282920;22;20050;-91
2022/03/08 01:40:15;;;;;;;8.75;3.65;;;3.90;99.90;;;;;;6282712;22;20026;-90
2022/03/08 01:42:46;;;;;;;10.73;4.10;;;4.00;99.90;;;;;;6282114;22;20019;-91
2022/03/08 01:45:16;;;;;;;8.07;3.63;;;4.00;99.90;;;;;;6257222;22;20023;-90
2022/03/08 01:47:44;;;;;;;11.15;4.80;;;4.00;99.90;;;;;;6283092;22;20019;-90
2022/03/08 01:50:12;;;;;;;8.52;3.90;;;3.90;99.90;;;;;;6283120;22;20011;-90
2022/03/08 01:52:39;;;;;;;6.18;3.00;;;4.00;99.90;;;;;;6282439;22;20025;-90
2022/03/08 01:55:08;;;;;;;6.78;3.17;;;4.10;99.90;;;;;;6282768;22;20023;-91
2022/03/08 01:57:35;;;;;;;8.38;3.55;;;4.10;99.90;;;;;;6282580;22;20023;-90
2022/03/08 02:00:08;;;;;;;6.35;3.42;;;4.00;99.90;;;;;;6282740;22;20027;-90
2022/03/08 02:02:39;;;;;;;9.00;3.90;;;4.10;99.90;;;;;;6309869;22;20354;-91
2022/03/08 02:05:07;;;;;;;7.90;2.67;;;4.10;99.90;;;;;;6283290;22;20015;-92
2022/03/08 02:07:35;;;;;;;8.93;3.88;;;4.10;99.90;;;;;;6282375;22;20015;-91
2022/03/08 02:10:04;;;;;;;7.35;3.55;;;4.10;99.90;;;;;;6282722;22;20019;-91
2022/03/08 02:12:32;;;;;;;9.95;3.58;;;4.10;99.90;;;;;;6282945;22;20019;-91
2022/03/08 02:14:59;;;;;;;9.25;4.95;;;4.00;99.90;;;;;;6257245;22;20484;-91
2022/03/08 02:17:26;;;;;;;7.70;3.83;;;3.80;99.90;;;;;;6282271;22;20079;-91
2022/03/08 02:19:56;;;;;;;12.82;4.43;;;3.70;99.90;;;;;;6282078;22;20023;-91
2022/03/08 02:22:24;;;;;;;9.43;3.22;;;3.70;99.90;;;;;;6282628;22;20315;-90
2022/03/08 02:24:52;;;;;;;8.00;3.78;;;3.80;99.90;;;;;;6283066;22;20508;-91
2022/03/08 02:27:20;;;;;;;7.38;3.50;;;3.90;99.90;;;;;;6281739;22;20099;-91
2022/03/08 02:29:48;;;;;;;6.35;3.83;;;3.90;99.90;;;;;;6282247;22;20389;-90
2022/03/08 02:32:16;;;;;;;9.52;4.10;;;3.90;99.90;;;;;;6257283;22;20102;-90
2022/03/08 02:34:43;;;;;;;6.07;3.53;;;3.80;99.90;;;;;;6282933;22;20022;-90
2022/03/08 02:37:13;;;;;;;6.68;3.33;;;3.80;99.90;;;;;;6282278;22;20043;-91
2022/03/08 02:39:40;;;;;;;8.40;4.00;;;3.70;99.90;;;;;;6256765;22;20409;-90
2022/03/08 02:42:09;;;;;;;5.10;2.95;;;3.70;99.90;;;;;;6282090;22;20020;-90
2022/03/08 02:44:36;;;;;;;6.68;3.03;;;3.70;99.90;;;;;;6281672;22;20476;-91
2022/03/08 02:47:05;;;;;;;5.00;2.95;;;3.80;99.90;;;;;;6282256;22;20110;-91
2022/03/08 02:49:33;;;;;;;6.68;2.95;;;3.60;99.90;;;;;;6281859;22;20011;-91
2022/03/08 02:52:00;;;;;;;4.97;2.93;;;3.70;99.90;;;;;;6281968;22;20046;-92
2022/03/08 02:54:27;;;;;;;8.85;3.75;;;3.70;99.90;;;;;;6309222;22;20091;-91
2022/03/08 02:56:54;;;;;;;5.22;2.78;;;3.80;99.90;;;;;;6256979;22;20019;-91
2022/03/08 02:59:22;;;;;;;5.93;3.17;;;3.80;99.90;;;;;;6282047;22;20024;-90
2022/03/08 03:01:50;;;;;;;7.28;3.20;;;3.70;99.90;;;;;;6281635;22;20458;-91
2022/03/08 03:04:17;;;;;;;9.27;3.63;;;3.80;99.90;;;;;;6282438;22;20031;-91
2022/03/08 03:06:44;;;;;;;8.73;2.78;;;3.80;99.90;;;;;;6282172;22;20328;-91
2022/03/08 03:09:11;;;;;;;8.90;3.58;;;3.80;99.90;;;;;;6309464;22;20046;-92
2022/03/08 03:11:38;;;;;;;7.50;3.20;;;3.80;99.90;;;;;;6282887;22;20035;-91
2022/03/08 03:14:06;;;;;;;6.95;3.38;;;3.70;99.90;;;;;;6282089;22;20046;-91
2022/03/08 03:16:33;;;;;;;9.33;3.27;;;3.60;99.90;;;;;;6281399;22;20345;-90
2022/03/08 03:19:01;;;;;;;6.90;3.05;;;3.70;99.90;;;;;;6281952;22;20034;-90
2022/03/08 03:21:28;;;;;;;6.55;3.58;;;3.70;99.90;;;;;;6282212;22;20026;-92
2022/03/08 03:23:55;;;;;;;7.57;2.95;;;3.70;99.90;;;;;;6282067;22;20007;-91
2022/03/08 03:26:22;;;;;;;6.68;3.22;;;3.60;99.90;;;;;;6282144;22;20050;-91
2022/03/08 03:28:49;;;;;;;5.77;3.23;;;3.60;99.90;;;;;;6281874;22;20019;-91
2022/03/08 03:31:16;;;;;;;5.60;3.15;;;3.60;99.90;;;;;;6281539;22;20054;-91
2022/03/08 03:33:43;;;;;;;6.15;3.25;;;3.60;99.90;;;;;;6308737;22;20043;-91
2022/03/08 03:36:10;;;;;;;7.57;3.80;;;3.50;99.90;;;;;;6281741;22;20015;-92
2022/03/08 03:38:38;;;;;;;8.50;4.00;;;3.50;99.90;;;;;;6309086;22;20081;-92
2022/03/08 03:41:05;;;;;;;5.55;2.67;;;3.50;99.90;;;;;;6281466;22;20018;-91
2022/03/08 03:43:32;;;;;;;7.30;3.45;;;3.50;99.90;;;;;;6282223;22;20023;-91
2022/03/08 03:45:59;;;;;;;8.02;3.38;;;3.60;99.90;;;;;;6282915;22;20023;-91
2022/03/08 03:48:27;;;;;;;4.53;2.47;;;3.50;99.90;;;;;;6308709;22;20446;-90
2022/03/08 03:50:54;;;;;;;7.00;3.13;;;3.50;99.90;;;;;;6281572;22;20061;-90
2022/03/08 03:53:21;;;;;;;8.85;3.63;;;3.40;99.90;;;;;;6280818;22;20011;-91
2022/03/08 03:55:48;;;;;;;8.60;3.20;;;3.50;99.90;;;;;;6282214;22;20504;-91
2022/03/08 03:58:15;;;;;;;6.45;3.45;;;3.40;99.90;;;;;;6283193;22;20015;-91
2022/03/08 04:00:42;;;;;;;10.30;4.97;;;3.40;99.90;;;;;;6282134;22;20027;-91
2022/03/08 04:03:09;;;;;;;7.15;3.17;;;3.40;99.90;;;;;;6281564;22;20023;-92
2022/03/08 04:05:37;;;;;;;8.55;3.15;;;3.40;99.90;;;;;;6281471;22;20023;-91
2022/03/08 04:08:04;;;;;;;9.02;4.68;;;3.40;99.90;;;;;;6281666;22;20015;-91
2022/03/08 04:10:31;;;;;;;8.13;3.63;;;3.40;99.90;;;;;;6281762;22;20019;-90
2022/03/08 04:12:58;;;;;;;7.50;3.28;;;3.30;99.90;;;;;;6308675;22;20061;-92
2022/03/08 04:15:26;;;;;;;6.22;3.15;;;3.20;99.90;;;;;;6281804;22;20016;-92
2022/03/08 04:17:53;;;;;;;6.10;3.93;;;3.30;99.90;;;;;;6282007;22;20027;-91
2022/03/08 04:20:20;;;;;;;10.00;5.50;;;3.30;99.90;;;;;;6308923;22;20030;-91
2022/03/08 04:22:47;;;;;;;7.30;3.30;;;3.20;99.90;;;;;;6280579;22;20053;-91
2022/03/08 04:25:14;;;;;;;6.75;3.83;;;3.20;99.90;;;;;;6281389;22;20077;-91
2022/03/08 04:27:41;;;;;;;6.25;3.70;;;3.20;99.90;;;;;;6308221;22;20011;-91
2022/03/08 04:30:09;;;;;;;9.93;5.13;;;3.20;99.90;;;;;;6280907;22;20093;-90
2022/03/08 04:32:36;;;;;;;11.15;4.07;;;3.10;99.90;;;;;;6306710;22;20016;-91
2022/03/08 04:35:05;;;;;;;8.73;3.80;;;3.10;99.90;;;;;;6281144;22;20049;-91
2022/03/08 04:37:32;;;;;;;9.47;4.53;;;3.20;99.90;;;;;;6280816;22;20023;-91
2022/03/08 04:40:00;;;;;;;9.47;4.07;;;3.00;99.90;;;;;;6281521;22;20030;-91
2022/03/08 04:42:27;;;;;;;7.67;4.03;;;3.00;99.90;;;;;;6281560;22;20019;-91
2022/03/08 04:44:54;;;;;;;6.53;3.80;;;2.90;99.90;;;;;;6280655;22;20084;-91
2022/03/08 04:47:21;;;;;;;6.47;3.45;;;3.10;99.90;;;;;;6281347;22;20442;-91
2022/03/08 04:49:48;;;;;;;9.30;5.30;;;3.10;99.90;;;;;;6255756;22;20027;-91
2022/03/08 04:52:15;;;;;;;8.17;4.10;;;3.00;99.90;;;;;;6255199;22;20019;-91
2022/03/08 04:54:42;;;;;;;8.85;3.75;;;3.10;99.90;;;;;;6282464;22;20015;-91
2022/03/08 04:57:09;;;;;;;10.18;5.45;;;2.90;99.90;;;;;;6283086;22;20020;-91
2022/03/08 04:59:36;;;;;;;10.00;5.27;;;2.90;99.90;;;;;;6283197;22;20498;-91
2022/03/08 05:02:04;;;;;;;8.83;4.30;;;2.80;99.90;;;;;;6308739;22;20015;-91
2022/03/08 05:04:32;;;;;;;8.73;4.83;;;2.80;99.90;;;;;;6257678;22;20019;-91
2022/03/08 05:06:59;;;;;;;7.90;3.93;;;3.00;99.90;;;;;;6282675;22;20438;-91
2022/03/08 05:09:26;;;;;;;6.30;3.50;;;3.00;99.90;;;;;;6283482;22;20026;-91
2022/03/08 05:11:53;;;;;;;6.57;4.33;;;3.00;99.90;;;;;;6283553;22;20077;-92
2022/03/08 05:14:20;;;;;;;7.30;4.13;;;3.10;99.90;;;;;;6283408;22;20102;-91
2022/03/08 05:16:47;;;;;;;10.03;4.33;;;3.10;99.90;;;;;;6282500;22;20027;-91
2022/03/08 05:19:15;;;;;;;8.53;4.63;;;3.00;99.90;;;;;;6281964;22;20324;-91
2022/03/08 05:21:42;;;;;;;6.90;4.20;;;3.00;99.90;;;;;;6283155;22;20022;-91
2022/03/08 05:24:08;;;;;;;6.70;3.88;;;3.00;99.90;;;;;;6282172;22;20019;-90
2022/03/08 05:26:39;;;;;;;6.33;3.40;;;3.10;99.90;;;;;;6283206;22;20473;-91
2022/03/08 05:29:10;;;;;;;8.27;4.20;;;3.00;99.90;;;;;;6282839;22;20022;-90
2022/03/08 05:31:47;;;;;;;8.40;3.88;;;2.90;99.90;;;;;;6281651;22;20106;-90
2022/03/08 05:34:14;;;;;;;8.07;4.40;;;3.00;99.90;;;;;;6257466;22;20023;-91
2022/03/08 05:36:44;;;;;;;10.97;5.47;;;2.90;99.90;;;;;;6284419;22;20098;-92
2022/03/08 05:39:11;;;;;;;6.80;3.63;;;2.80;99.90;;;;;;6257120;22;20023;-91
2022/03/08 05:41:38;;;;;;;9.30;4.57;;;2.90;99.90;;;;;;6283113;22;20503;-91
2022/03/08 05:44:06;;;;;;;6.37;4.20;;;2.90;99.90;;;;;;6282683;22;20015;-92
2022/03/08 05:46:55;;;;;;;10.15;4.65;;;2.80;99.90;;;;;;6308982;22;20019;-92
2022/03/08 05:49:32;;;;;;;6.77;4.00;;;2.90;99.90;;;;;;6311095;22;20026;-94
2022/03/08 05:52:08;;;;;;;9.15;3.47;;;3.00;99.90;;;;;;6303194;22;20022;-92
2022/03/08 05:54:38;;;;;;;7.43;4.43;;;3.00;99.90;;;;;;6282263;22;20065;-91
2022/03/08 05:57:17;;;;;;;7.65;4.50;;;2.80;99.90;;;;;;6283791;22;20011;-92
2022/03/08 06:00:09;;;;;;;7.57;3.27;;;2.90;99.90;;;;;;6284290;22;20037;-92
2022/03/08 06:02:40;;;;;;;8.03;3.77;;;3.00;99.90;;;;;;6309715;22;20019;-91
2022/03/08 06:05:22;;;;;;;9.10;4.23;;;2.90;99.90;;;;;;6284996;22;20393;-90
2022/03/08 06:07:52;;;;;;;9.77;5.13;;;2.90;99.90;;;;;;6282038;22;20019;-92
2022/03/08 06:10:25;;;;;;;6.50;3.63;;;2.80;99.90;;;;;;6281221;22;20458;-92
2022/03/08 06:12:54;;;;;;;9.73;4.25;;;2.80;99.90;;;;;;6255938;22;20019;-91
2022/03/08 06:15:50;;;;;;;11.40;4.13;;;2.70;99.90;;;;;;6257495;22;20102;-92
2022/03/08 06:18:30;;;;;;;7.47;3.90;;;2.70;99.90;;;;;;6283945;22;20018;-94
2022/03/08 06:20:57;;;;;;;11.17;5.00;;;2.70;99.90;;;;;;6283079;22;20038;-93
2022/03/08 06:23:24;;;;;;;7.10;4.77;;;2.70;99.90;;;;;;6256487;22;20023;-93
2022/03/08 06:25:54;;;;;;;5.97;3.00;;;2.50;99.90;;;;;;6282972;22;20015;-93
2022/03/08 06:28:21;;;;;;;9.77;5.13;;;2.80;99.90;;;;;;6283333;22;20015;-93
2022/03/08 06:30:49;;;;;;;8.77;5.17;;;2.70;99.90;;;;;;6282319;22;20106;-94
2022/03/08 06:33:22;;;;;;;9.07;4.13;;;2.70;99.90;;;;;;6284422;22;20015;-93
2022/03/08 06:35:51;;;;;;;7.07;3.53;;;2.80;99.90;;;;;;6308754;22;20020;-93
2022/03/08 06:38:18;;;;;;;8.07;4.47;;;2.80;99.90;;;;;;6281557;22;20043;-91
2022/03/08 06:40:45;;;;;;;6.97;4.73;;;2.80;99.90;;;;;;6281448;22;20424;-92
2022/03/08 06:43:12;;;;;;;6.97;4.20;;;2.80;99.90;;;;;;6255666;22;20128;-91
2022/03/08 06:45:39;;;;;;;8.53;4.10;;;2.70;99.90;;;;;;6282273;22;20029;-91
2022/03/08 06:48:06;;;;;;;7.83;5.00;;;2.70;99.90;;;;;;6307847;22;20106;-92
2022/03/08 06:50:33;;;;;;;8.47;4.20;;;2.60;99.90;;;;;;6281579;22;20022;-91
2022/03/08 06:53:00;;;;;;;9.87;4.77;;;2.70;99.90;;;;;;6281259;22;20082;-91
2022/03/08 06:55:27;;;;;;;9.30;4.23;;;2.60;99.90;;;;;;6282333;22;20446;-89
2022/03/08 06:57:54;;;;;;;4.95;3.13;;;2.60;99.90;;;;;;6282276;22;20098;-92
2022/03/08 07:00:21;;;;;;;8.87;5.67;;;2.70;99.90;;;;;;6283790;22;20114;-89
2022/03/08 07:02:48;;;;;;;10.02;6.22;;;2.60;99.90;;;;;;6279298;22;20450;-90
2022/03/08 07:05:15;;;;;;;7.70;4.40;;;2.60;99.90;;;;;;6281208;22;20023;-89
2022/03/08 07:07:42;;;;;;;8.87;4.23;;;2.60;99.90;;;;;;6280837;22;20019;-89
2022/03/08 07:10:09;;;;;;;8.47;3.83;;;2.70;99.90;;;;;;6280660;22;20019;-88
2022/03/08 07:12:36;;;;;;;9.37;4.70;;;2.70;99.90;;;;;;6281193;22;20427;-89
2022/03/08 07:15:04;;;;;;;9.65;4.68;;;2.70;99.90;;;;;;6256240;22;20011;-90
2022/03/08 07:17:31;;;;;;;9.23;5.47;;;2.70;99.90;;;;;;6281216;22;20039;-89
2022/03/08 07:19:58;;;;;;;7.50;4.50;;;2.70;99.90;;;;;;6281434;22;20106;-90
2022/03/08 07:22:25;;;;;;;8.00;4.30;;;2.80;99.90;;;;;;6280437;22;20092;-89
2022/03/08 07:24:54;;;;;;;9.93;4.40;;;2.80;99.90;;;;;;6308379;22;20393;-89
2022/03/08 07:27:21;;;;;;;7.57;4.53;;;2.90;99.90;;;;;;6280708;22;20019;-87
2022/03/08 07:29:48;;;;;;;9.87;5.10;;;2.90;99.90;;;;;;6280847;22;20019;-89
2022/03/08 07:32:15;;;;;;;9.47;4.43;;;2.80;99.90;;;;;;6280201;22;20442;-89
2022/03/08 07:34:42;;;;;;;12.93;5.67;;;2.80;99.90;;;;;;6280770;22;20046;-89
2022/03/08 07:37:12;;;;;;;10.43;4.70;;;2.80;99.90;;;;;;6280982;22;20019;-88
2022/03/08 07:39:39;;;;;;;9.73;4.67;;;2.90;99.90;;;;;;6281210;22;20019;-89
2022/03/08 07:42:06;;;;;;;9.23;4.80;;;2.90;99.90;;;;;;6280598;22;20019;-90
2022/03/08 07:44:36;;;;;;;7.40;4.77;;;2.90;99.90;;;;;;6280640;22;20401;-90
2022/03/08 07:47:04;;;;;;;8.03;4.97;;;3.00;99.90;;;;;;6307841;22;20376;-89
2022/03/08 07:49:32;;;;;;;13.17;5.37;;;3.00;99.90;;;;;;6306754;22;20481;-89
2022/03/08 07:51:59;;;;;;;10.23;5.80;;;3.00;99.90;;;;;;6280552;22;20012;-88
2022/03/08 07:54:26;;;;;;;9.30;5.13;;;3.00;99.90;;;;;;6280415;22;20043;-89
2022/03/08 07:56:53;;;;;;;12.70;5.80;;;3.10;99.90;;;;;;6280251;22;20400;-88
2022/03/08 07:59:20;;;;;;;8.93;4.97;;;3.10;99.90;;;;;;6281137;22;20459;-88
2022/03/08 08:01:47;;;;;;;13.37;5.47;;;3.20;99.90;;;;;;6280153;22;20034;-89
2022/03/08 08:04:14;;;;;;;7.78;4.80;;;3.30;99.90;;;;;;6280232;22;20073;-88
2022/03/08 08:06:41;;;;;;;10.15;5.60;;;3.30;99.90;;;;;;6280154;22;20393;-88
2022/03/08 08:09:12;;;;;;;10.98;5.10;;;3.30;99.90;;;;;;6307530;22;20016;-90
2022/03/08 08:11:39;;;;;;;8.27;5.17;;;3.40;99.90;;;;;;6305849;22;20015;-89
2022/03/08 08:14:06;;;;;;;10.00;5.93;;;3.40;99.90;;;;;;6280342;22;20068;-89
2022/03/08 08:16:34;;;;;;;10.63;5.73;;;3.50;99.90;;;;;;6280770;22;20069;-89
2022/03/08 08:19:01;;;;;;;10.57;5.27;;;3.50;99.90;;;;;;6307192;22;20027;-89
2022/03/08 08:21:28;;;;;;;6.45;4.55;;;3.60;99.90;;;;;;6279640;22;20046;-89
2022/03/08 08:23:55;;;;;;;8.02;4.90;;;3.70;99.90;;;;;;6280431;22;20094;-89
2022/03/08 08:26:22;;;;;;;12.10;5.03;;;3.80;99.90;;;;;;6254790;22;20446;-89
2022/03/08 08:28:49;;;;;;;12.52;6.07;;;3.90;99.90;;;;;;6307881;22;20019;-89
2022/03/08 08:31:16;;;;;;;9.88;5.60;;;4.00;99.90;;;;;;6280413;22;20015;-89
2022/03/08 08:33:43;;;;;;;9.50;5.25;;;4.00;99.90;;;;;;6307427;22;20434;-88
2022/03/08 08:36:10;;;;;;;8.33;4.90;;;4.10;99.90;;;;;;6280056;22;20023;-90
2022/03/08 08:38:37;;;;;;;11.40;5.85;;;4.10;99.90;;;;;;6307992;22;20020;-90
2022/03/08 08:41:04;;;;;;;8.83;5.70;;;4.10;99.90;;;;;;6279979;22;20404;-88
2022/03/08 08:43:32;;;;;;;8.55;5.32;;;4.20;99.90;;;;;;6280415;22;20015;-90
2022/03/08 08:45:59;;;;;;;9.35;5.13;;;4.10;99.90;;;;;;6280376;22;20113;-89
2022/03/08 08:48:26;;;;;;;10.05;5.47;;;4.20;99.90;;;;;;6279856;22;20092;-89
2022/03/08 08:50:53;;;;;;;9.13;4.65;;;4.30;99.90;;;;;;6280347;22;20045;-89
2022/03/08 08:53:22;;;;;;;10.32;5.68;;;4.30;99.90;;;;;;6280042;22;20015;-89
2022/03/08 08:55:50;;;;;;;9.02;5.15;;;4.30;99.90;;;;;;6280743;22;20096;-89
2022/03/08 08:58:17;;;;;;;8.88;5.50;;;4.40;99.90;;;;;;6280375;22;20015;-89
2022/03/08 09:00:45;;;;;;;8.40;5.18;;;4.40;99.90;;;;;;6280036;22;20384;-89
2022/03/08 09:03:14;;;;;;;8.13;4.78;;;4.40;99.90;;;;;;6306885;22;20015;-90
2022/03/08 09:05:47;;;;;;;8.82;4.85;;;4.50;99.90;;;;;;6280817;22;20015;-90
2022/03/08 09:08:14;;;;;;;9.48;5.43;;;4.50;99.90;;;;;;6280242;22;20377;-89
2022/03/08 09:10:42;;;;;;;7.60;4.65;;;4.40;99.90;;;;;;6280382;22;20015;-89
2022/03/08 09:13:08;;;;;;;15.15;5.18;;;4.50;99.90;;;;;;6279913;22;20077;-90
2022/03/08 09:15:35;;;;;;;8.10;4.80;;;4.50;99.90;;;;;;6279990;22;20015;-90
2022/03/08 09:18:05;;;;;;;6.10;3.88;;;4.50;99.90;;;;;;6280603;22;20015;-89
2022/03/08 09:20:33;;;;;;;7.82;4.13;;;4.60;99.90;;;;;;6307187;22;20022;-90
2022/03/08 09:23:00;;;;;;;10.95;5.13;;;4.60;99.90;;;;;;6279639;22;20019;-90
2022/03/08 09:25:27;;;;;;;6.22;4.18;;;4.70;99.90;;;;;;6307414;22;20015;-90
2022/03/08 09:27:55;;;;;;;11.25;4.70;;;4.60;99.90;;;;;;6307558;22;20023;-90
2022/03/08 09:30:22;;;;;;;6.68;4.22;;;4.80;99.90;;;;;;6280234;22;20073;-89
2022/03/08 09:32:49;;;;;;;8.00;4.57;;;4.80;99.90;;;;;;6280272;22;20065;-88
2022/03/08 09:35:16;;;;;;;7.38;4.78;;;4.90;99.90;;;;;;6280401;22;20020;-90
2022/03/08 09:37:43;;;;;;;7.78;4.85;;;4.90;99.90;;;;;;6280374;22;20051;-89
2022/03/08 09:40:11;;;;;;;6.70;4.85;;;4.90;99.90;;;;;;6308359;22;20117;-90
2022/03/08 09:42:38;;;;;;;7.57;4.25;;;5.00;99.90;;;;;;6282136;22;20027;-91
2022/03/08 09:45:07;;;;;;;7.00;4.65;;;5.00;99.90;;;;;;6282654;22;20029;-89
2022/03/08 09:47:36;;;;;;;9.10;4.70;;;5.00;99.90;;;;;;6281596;22;20019;-90
2022/03/08 09:50:04;;;;;;;10.52;5.10;;;5.10;99.90;;;;;;6256083;22;20015;-89
2022/03/08 09:52:37;;;;;;;6.55;4.47;;;5.20;90.70;;;;;;6281280;22;20016;-89
2022/03/08 09:55:06;;;;;;;6.85;4.78;;;5.20;99.90;;;;;;6282604;22;20080;-89
2022/03/08 09:57:34;;;;;;;6.50;4.30;;;5.30;99.90;;;;;;6307648;22;20078;-89
2022/03/08 10:00:04;;;;;;;6.97;4.63;;;5.40;64.70;;;;;;6309139;22;20387;-89
2022/03/08 10:02:46;;;;;;;10.75;5.20;;;5.30;63.80;;;;;;6308449;22;20015;-90
2022/03/08 10:05:13;;;;;;;8.20;4.20;;;5.30;82.20;;;;;;6282632;22;20026;-90
2022/03/08 10:08:10;;;;;;;9.55;4.68;;;5.30;68.20;;;;;;6307512;22;20022;-90
2022/03/08 10:10:48;;;;;;;8.48;4.45;;;5.40;77.50;;;;;;6256006;22;20434;-89
2022/03/08 10:13:23;;;;;;;6.82;3.97;;;5.60;39.10;;;;;;6283007;22;20042;-89
2022/03/08 10:16:43;;;;;;;7.45;4.55;;;5.60;39.90;;;;;;6281625;22;20020;-90
2022/03/08 10:19:11;;;;;;;8.18;4.60;;;5.60;41.30;;;;;;6281897;22;20023;-90
2022/03/08 10:21:42;;;;;;;10.63;4.40;;;5.60;40.00;;;;;;6281446;22;20023;-91
2022/03/08 10:24:15;;;;;;;9.05;4.93;;;5.60;32.00;;;;;;6281974;22;20015;-90
2022/03/08 10:26:55;;;;;;;7.35;5.05;;;5.70;23.40;;;;;;6280998;22;20102;-91
2022/03/08 10:29:28;;;;;;;7.45;5.05;;;5.60;30.00;;;;;;6281850;22;20016;-90
2022/03/08 10:32:05;;;;;;;9.05;4.60;;;5.80;21.90;;;;;;6308997;22;20423;-90
2022/03/08 10:34:36;;;;;;;7.00;4.75;;;6.00;21.00;;;;;;6281641;22;20038;-92
2022/03/08 10:37:13;;;;;;;6.50;4.50;;;6.00;19.30;;;;;;6308945;22;20064;-90
2022/03/08 10:39:55;;;;;;;7.95;4.65;;;6.10;18.90;;;;;;6307040;22;20023;-90
2022/03/08 10:42:28;;;;;;;8.63;5.35;;;6.10;23.20;;;;;;6256161;22;20019;-91
2022/03/08 10:45:10;;;;;;;6.40;4.50;;;6.10;19.40;;;;;;6308479;22;20447;-90
2022/03/08 10:47:51;;;;;;;7.43;4.95;;;6.20;16.70;;;;;;6281353;22;20097;-90
2022/03/08 10:50:24;;;;;;;8.35;4.32;;;6.40;16.70;;;;;;6281204;22;20022;-91
2022/03/08 10:52:55;;;;;;;8.18;5.38;;;6.50;17.90;;;;;;6280746;22;20045;-90
2022/03/08 10:55:34;;;;;;;7.55;4.45;;;6.40;21.30;;;;;;6280860;22;20019;-91
2022/03/08 10:58:10;;;;;;;9.65;4.78;;;6.40;16.90;;;;;;6280037;22;20019;-91
2022/03/08 11:00:48;;;;;;;9.20;5.05;;;6.30;18.70;;;;;;6282319;22;20434;-91
2022/03/08 11:03:21;;;;;;;6.68;3.97;;;6.50;20.60;;;;;;6280282;22;20527;-89
2022/03/08 11:05:55;;;;;;;8.20;5.07;;;6.50;21.10;;;;;;6281400;22;20015;-91
2022/03/08 11:08:28;;;;;;;10.77;4.50;;;6.40;18.30;;;;;;6281060;22;20019;-90
2022/03/08 11:11:03;;;;;;;6.15;4.07;;;6.50;16.80;;;;;;6308810;22;20015;-91
2022/03/08 11:13:36;;;;;;;6.25;4.32;;;6.70;16.10;;;;;;6281757;22;20016;-91
2022/03/08 11:16:13;;;;;;;5.82;4.57;;;6.80;13.70;;;;;;6308185;22;20031;-90
2022/03/08 11:18:54;;;;;;;8.15;4.60;;;6.90;17.20;;;;;;6248389;22;20023;-90
2022/03/08 11:21:26;;;;;;;8.80;4.80;;;7.00;14.90;;;;;;6281578;22;20011;-91
2022/03/08 11:23:54;;;;;;;6.97;4.15;;;6.90;14.40;;;;;;6254909;22;20438;-91
2022/03/08 11:26:23;;;;;;;6.85;4.13;;;7.00;16.00;;;;;;6255472;22;20019;-89
2022/03/08 11:28:56;;;;;;;6.53;4.07;;;7.10;16.10;;;;;;6308242;22;20090;-90
2022/03/08 11:31:34;;;;;;;7.78;4.47;;;7.10;12.90;;;;;;6308304;22;20021;-91
2022/03/08 11:34:40;;;;;;;5.53;4.43;;;7.20;14.20;;;;;;6280774;22;20034;-90
2022/03/08 11:37:20;;;;;;;6.13;4.75;;;7.30;23.90;;;;;;6235607;22;20031;-91
2022/03/08 11:40:10;;;;;;;8.30;4.80;;;7.20;13.30;;;;;;6282072;22;20011;-89
2022/03/08 11:42:44;;;;;;;5.82;4.28;;;7.20;12.50;;;;;;6255237;22;20046;-90
2022/03/08 11:45:25;;;;;;;6.88;4.10;;;7.30;12.70;;;;;;6281232;22;20072;-91
2022/03/08 11:47:57;;;;;;;;;;;7.40;15.10;;;;;;6282559;22;20019;-91
2022/03/08 11:50:39;;;;;;;7.78;3.83;;;7.50;14.90;;;;;;6280669;22;19919;-90
2022/03/08 11:53:12;;;;;;;7.38;4.35;;;7.50;16.00;;;;;;6280739;22;20019;-91
2022/03/08 11:55:47;;;;;;;6.97;4.60;;;7.50;12.10;;;;;;6282005;22;20507;-91
2022/03/08 11:58:16;;;;;;;7.03;4.35;;;7.80;13.80;;;;;;6280776;22;20043;-90
2022/03/08 12:00:57;;;;;;;5.07;3.83;;;7.70;14.50;;;;;;6281553;22;20095;-90
2022/03/08 12:03:34;;;;;;;5.63;4.10;;;7.80;11.70;;;;;;6280967;22;20019;-89
2022/03/08 12:06:09;;;;;;;6.57;4.28;;;7.90;12.80;;;;;;6280380;22;20023;-90
2022/03/08 12:08:46;;;;;;;6.32;4.30;;;8.00;12.00;;;;;;6306055;22;20019;-90
2022/03/08 12:11:35;;;;;;;6.45;3.40;;;7.90;22.20;;;;;;6279837;22;20091;-90
2022/03/08 12:14:32;;;;;;;5.05;3.45;;;8.00;8.20;;;;;;6307075;22;20426;-90
2022/03/08 12:17:12;;;;;;;7.10;4.20;;;8.30;12.10;;;;;;6280216;22;20051;-90
2022/03/08 12:19:42;;;;;;;6.50;3.67;;;8.40;8.90;;;;;;6280332;22;20069;-90
2022/03/08 12:22:15;;;;;;;10.48;3.90;;;8.30;10.10;;;;;;6254938;22;20331;-90
2022/03/08 12:24:54;;;;;;;6.22;4.00;;;8.40;8.20;;;;;;6307745;22;20045;-90
2022/03/08 12:27:23;;;;;;;5.57;4.00;;;8.60;8.30;;;;;;6280571;22;20118;-91
2022/03/08 12:29:59;;;;;;;7.45;4.15;;;8.60;10.70;;;;;;6280580;22;20434;-90
2022/03/08 12:32:34;;;;;;;6.65;3.78;;;8.70;8.40;;;;;;6306955;22;21209;-90
2022/03/08 12:35:14;;;;;;;6.47;4.03;;;8.70;10.80;;;;;;6281051;22;20026;-90
2022/03/08 12:37:49;;;;;;;6.53;3.58;;;8.80;8.50;;;;;;6280649;22;20011;-89
2022/03/08 12:40:26;;;;;;;8.13;3.83;;;8.90;13.10;;;;;;6307496;22;20454;-89
2022/03/08 12:43:09;;;;;;;8.95;4.38;;;8.90;10.30;;;;;;6279647;22;20391;-90
2022/03/08 12:45:45;;;;;;;5.45;3.88;;;8.90;7.30;;;;;;6281848;22;20047;-89
2022/03/08 12:48:20;;;;;;;5.65;3.63;;;9.00;8.60;;;;;;6279747;22;20069;-90
2022/03/08 12:50:53;;;;;;;5.00;3.05;;;9.00;7.00;;;;;;6280635;22;20346;-90
2022/03/08 12:53:30;;;;;;;9.25;4.03;;;9.00;8.60;;;;;;6307029;22;20011;-90
2022/03/08 12:56:04;;;;;;;7.80;3.83;;;9.00;7.60;;;;;;6255321;22;20385;-90
2022/03/08 12:58:39;;;;;;;5.30;3.53;;;9.20;8.70;;;;;;6280696;22;20015;-88
2022/03/08 13:01:13;;;;;;;6.47;3.95;;;9.10;10.80;;;;;;6307524;22;20015;-91
2022/03/08 13:03:45;;;;;;;7.35;3.80;;;9.20;7.50;;;;;;6255005;22;20023;-90
2022/03/08 13:06:18;;;;;;;6.90;3.60;;;9.30;8.70;;;;;;6280039;22;20095;-91
2022/03/08 13:08:47;;;;;;;6.53;3.60;;;9.30;8.30;;;;;;6279819;22;20043;-90
2022/03/08 13:11:19;;;;;;;5.93;3.67;;;9.40;9.80;;;;;;6280951;22;20085;-90